sensor_id;sensor_type;location;lat;lon;timestamp;temperature;humidity
15364;DHT22;7781;49.690;6.472;2024-02-23T00:00:09;6.30;99.90
15364;DHT22;7781;49.690;6.472;2024-02-23T00:02:38;6.20;99.90
15364;DHT22;7781;49.690;6.472;2024-02-23T00:05:07;6.20;99.90
15364;DHT22;7781;49.690;6.472;2024-02-23T00:07:36;6.10;99.90
15364;DHT22;7781;49.690;6.472;2024-02-23T00:10:06;6.10;99.90
15364;DHT22;7781;49.690;6.472;2024-02-23T00:12:35;6.10;95.60
15364;DHT22;7781;49.690;6.472;2024-02-23T00:15:04;6.10;91.30
15364;DHT22;7781;49.690;6.472;2024-02-23T00:17:35;6.10;90.50
15364;DHT22;7781;49.690;6.472;2024-02-23T00:20:08;6.10;80.20
15364;DHT22;7781;49.690;6.472;2024-02-23T00:22:38;6.00;90.10
15364;DHT22;7781;49.690;6.472;2024-02-23T00:25:07;6.00;86.00
15364;DHT22;7781;49.690;6.472;2024-02-23T00:27:36;6.00;81.90
15364;DHT22;7781;49.690;6.472;2024-02-23T00:30:07;6.00;84.30
15364;DHT22;7781;49.690;6.472;2024-02-23T00:32:37;6.00;88.40
15364;DHT22;7781;49.690;6.472;2024-02-23T00:35:06;5.90;91.70
15364;DHT22;7781;49.690;6.472;2024-02-23T00:37:35;5.90;97.30
15364;DHT22;7781;49.690;6.472;2024-02-23T00:40:05;5.80;99.90
15364;DHT22;7781;49.690;6.472;2024-02-23T00:42:34;5.80;99.90
15364;DHT22;7781;49.690;6.472;2024-02-23T00:45:04;5.70;99.90
15364;DHT22;7781;49.690;6.472;2024-02-23T00:47:33;5.70;99.90
15364;DHT22;7781;49.690;6.472;2024-02-23T00:50:05;5.80;99.90
15364;DHT22;7781;49.690;6.472;2024-02-23T00:52:33;5.80;99.20
15364;DHT22;7781;49.690;6.472;2024-02-23T00:55:02;5.80;97.80
15364;DHT22;7781;49.690;6.472;2024-02-23T00:57:32;5.70;96.20
15364;DHT22;7781;49.690;6.472;2024-02-23T01:00:01;5.70;95.40
15364;DHT22;7781;49.690;6.472;2024-02-23T01:02:32;5.60;94.30
15364;DHT22;7781;49.690;6.472;2024-02-23T01:05:06;5.60;95.70
15364;DHT22;7781;49.690;6.472;2024-02-23T01:07:37;5.60;97.40
15364;DHT22;7781;49.690;6.472;2024-02-23T01:10:06;5.60;99.90
15364;DHT22;7781;49.690;6.472;2024-02-23T01:12:35;5.60;99.30
15364;DHT22;7781;49.690;6.472;2024-02-23T01:15:04;5.60;96.20
15364;DHT22;7781;49.690;6.472;2024-02-23T01:17:33;5.60;97.60
15364;DHT22;7781;49.690;6.472;2024-02-23T01:20:02;5.60;96.20
15364;DHT22;7781;49.690;6.472;2024-02-23T01:22:32;5.60;99.90
15364;DHT22;7781;49.690;6.472;2024-02-23T01:25:01;5.60;99.90
15364;DHT22;7781;49.690;6.472;2024-02-23T01:27:29;5.50;99.90
15364;DHT22;7781;49.690;6.472;2024-02-23T01:29:58;5.50;99.90
15364;DHT22;7781;49.690;6.472;2024-02-23T01:32:28;5.50;99.90
15364;DHT22;7781;49.690;6.472;2024-02-23T01:34:57;5.50;99.90
15364;DHT22;7781;49.690;6.472;2024-02-23T01:37:25;5.40;99.90
15364;DHT22;7781;49.690;6.472;2024-02-23T01:39:57;5.50;99.90
15364;DHT22;7781;49.690;6.472;2024-02-23T01:42:26;5.40;99.90
15364;DHT22;7781;49.690;6.472;2024-02-23T01:44:54;5.40;99.90
15364;DHT22;7781;49.690;6.472;2024-02-23T01:47:24;5.40;99.90
15364;DHT22;7781;49.690;6.472;2024-02-23T01:49:55;5.30;99.90
15364;DHT22;7781;49.690;6.472;2024-02-23T01:52:24;5.30;99.90
15364;DHT22;7781;49.690;6.472;2024-02-23T01:54:55;5.30;99.90
15364;DHT22;7781;49.690;6.472;2024-02-23T01:57:24;5.30;99.90
15364;DHT22;7781;49.690;6.472;2024-02-23T02:00:16;5.30;99.90
15364;DHT22;7781;49.690;6.472;2024-02-23T02:02:51;5.30;99.90
15364;DHT22;7781;49.690;6.472;2024-02-23T02:05:20;5.30;99.90
15364;DHT22;7781;49.690;6.472;2024-02-23T02:07:52;5.30;99.90
15364;DHT22;7781;49.690;6.472;2024-02-23T02:10:22;5.30;99.90
15364;DHT22;7781;49.690;6.472;2024-02-23T02:12:51;5.30;99.90
15364;DHT22;7781;49.690;6.472;2024-02-23T02:15:20;5.30;99.90
15364;DHT22;7781;49.690;6.472;2024-02-23T02:17:50;5.20;99.90
15364;DHT22;7781;49.690;6.472;2024-02-23T02:20:24;5.20;99.90
15364;DHT22;7781;49.690;6.472;2024-02-23T02:22:52;5.10;99.90
15364;DHT22;7781;49.690;6.472;2024-02-23T02:25:22;5.10;99.90
15364;DHT22;7781;49.690;6.472;2024-02-23T02:27:51;5.00;99.90
15364;DHT22;7781;49.690;6.472;2024-02-23T02:30:20;4.90;99.90
15364;DHT22;7781;49.690;6.472;2024-02-23T02:32:50;4.90;99.90
15364;DHT22;7781;49.690;6.472;2024-02-23T02:35:18;4.90;99.90
15364;DHT22;7781;49.690;6.472;2024-02-23T02:37:48;4.90;99.90
15364;DHT22;7781;49.690;6.472;2024-02-23T02:40:17;4.90;99.90
15364;DHT22;7781;49.690;6.472;2024-02-23T02:42:47;4.90;99.90
15364;DHT22;7781;49.690;6.472;2024-02-23T02:45:16;4.80;99.90
15364;DHT22;7781;49.690;6.472;2024-02-23T02:47:47;4.80;99.90
15364;DHT22;7781;49.690;6.472;2024-02-23T02:50:15;4.90;99.90
15364;DHT22;7781;49.690;6.472;2024-02-23T02:52:44;4.80;99.90
15364;DHT22;7781;49.690;6.472;2024-02-23T02:55:15;4.80;99.90
15364;DHT22;7781;49.690;6.472;2024-02-23T02:57:44;4.80;99.90
15364;DHT22;7781;49.690;6.472;2024-02-23T03:00:15;4.90;99.90
15364;DHT22;7781;49.690;6.472;2024-02-23T03:02:44;4.90;99.90
15364;DHT22;7781;49.690;6.472;2024-02-23T03:05:14;4.90;99.90
15364;DHT22;7781;49.690;6.472;2024-02-23T03:07:42;4.90;99.90
15364;DHT22;7781;49.690;6.472;2024-02-23T03:10:10;4.90;99.90
15364;DHT22;7781;49.690;6.472;2024-02-23T03:12:39;4.90;99.90
15364;DHT22;7781;49.690;6.472;2024-02-23T03:15:08;4.90;99.90
15364;DHT22;7781;49.690;6.472;2024-02-23T03:17:38;4.80;99.90
15364;DHT22;7781;49.690;6.472;2024-02-23T03:20:07;4.70;99.90
15364;DHT22;7781;49.690;6.472;2024-02-23T03:22:36;4.70;99.90
15364;DHT22;7781;49.690;6.472;2024-02-23T03:25:05;4.70;99.90
15364;DHT22;7781;49.690;6.472;2024-02-23T03:27:38;4.80;99.90
15364;DHT22;7781;49.690;6.472;2024-02-23T03:30:07;4.80;99.90
15364;DHT22;7781;49.690;6.472;2024-02-23T03:32:37;4.80;99.90
15364;DHT22;7781;49.690;6.472;2024-02-23T03:35:07;4.80;99.90
15364;DHT22;7781;49.690;6.472;2024-02-23T03:37:36;4.80;99.90
15364;DHT22;7781;49.690;6.472;2024-02-23T03:40:07;4.80;99.90
15364;DHT22;7781;49.690;6.472;2024-02-23T03:42:37;4.80;99.90
15364;DHT22;7781;49.690;6.472;2024-02-23T03:45:06;4.90;99.90
15364;DHT22;7781;49.690;6.472;2024-02-23T03:47:34;4.80;99.90
15364;DHT22;7781;49.690;6.472;2024-02-23T03:50:08;4.90;99.90
15364;DHT22;7781;49.690;6.472;2024-02-23T03:52:36;5.00;99.90
15364;DHT22;7781;49.690;6.472;2024-02-23T03:55:06;5.00;99.90
15364;DHT22;7781;49.690;6.472;2024-02-23T03:57:34;5.00;99.90
15364;DHT22;7781;49.690;6.472;2024-02-23T04:00:04;4.90;99.90
15364;DHT22;7781;49.690;6.472;2024-02-23T04:02:40;4.90;99.90
15364;DHT22;7781;49.690;6.472;2024-02-23T04:05:11;4.90;99.90
15364;DHT22;7781;49.690;6.472;2024-02-23T04:07:39;4.80;99.90
15364;DHT22;7781;49.690;6.472;2024-02-23T04:10:08;4.80;99.90
15364;DHT22;7781;49.690;6.472;2024-02-23T04:12:36;4.80;99.90
15364;DHT22;7781;49.690;6.472;2024-02-23T04:15:06;4.70;99.90
15364;DHT22;7781;49.690;6.472;2024-02-23T04:17:36;4.70;99.90
15364;DHT22;7781;49.690;6.472;2024-02-23T04:20:07;4.70;99.90
15364;DHT22;7781;49.690;6.472;2024-02-23T04:22:38;4.60;99.90
15364;DHT22;7781;49.690;6.472;2024-02-23T04:25:07;4.60;99.90
15364;DHT22;7781;49.690;6.472;2024-02-23T04:27:36;4.50;99.90
15364;DHT22;7781;49.690;6.472;2024-02-23T04:30:06;4.50;99.90
15364;DHT22;7781;49.690;6.472;2024-02-23T04:32:35;4.50;99.90
15364;DHT22;7781;49.690;6.472;2024-02-23T04:35:04;4.50;99.90
15364;DHT22;7781;49.690;6.472;2024-02-23T04:37:33;4.50;99.90
15364;DHT22;7781;49.690;6.472;2024-02-23T04:40:06;4.50;99.90
15364;DHT22;7781;49.690;6.472;2024-02-23T04:42:35;4.50;99.90
15364;DHT22;7781;49.690;6.472;2024-02-23T04:45:07;4.50;99.90
15364;DHT22;7781;49.690;6.472;2024-02-23T04:47:35;4.40;99.90
15364;DHT22;7781;49.690;6.472;2024-02-23T04:50:05;4.40;99.90
15364;DHT22;7781;49.690;6.472;2024-02-23T04:52:34;4.40;99.90
15364;DHT22;7781;49.690;6.472;2024-02-23T04:55:07;4.40;99.90
15364;DHT22;7781;49.690;6.472;2024-02-23T04:57:37;4.40;99.90
15364;DHT22;7781;49.690;6.472;2024-02-23T05:00:07;4.40;99.90
15364;DHT22;7781;49.690;6.472;2024-02-23T05:02:35;4.40;99.90
15364;DHT22;7781;49.690;6.472;2024-02-23T05:05:05;4.40;99.90
15364;DHT22;7781;49.690;6.472;2024-02-23T05:07:33;4.40;99.90
15364;DHT22;7781;49.690;6.472;2024-02-23T05:10:02;4.40;99.90
15364;DHT22;7781;49.690;6.472;2024-02-23T05:12:32;4.40;99.90
15364;DHT22;7781;49.690;6.472;2024-02-23T05:15:00;4.30;99.90
15364;DHT22;7781;49.690;6.472;2024-02-23T05:17:30;4.30;99.90
15364;DHT22;7781;49.690;6.472;2024-02-23T05:19:58;4.20;99.90
15364;DHT22;7781;49.690;6.472;2024-02-23T05:22:27;4.20;99.90
15364;DHT22;7781;49.690;6.472;2024-02-23T05:24:56;4.20;99.90
15364;DHT22;7781;49.690;6.472;2024-02-23T05:27:24;4.30;99.90
15364;DHT22;7781;49.690;6.472;2024-02-23T05:29:56;4.30;99.90
15364;DHT22;7781;49.690;6.472;2024-02-23T05:32:24;4.20;99.90
15364;DHT22;7781;49.690;6.472;2024-02-23T05:34:53;4.20;99.90
15364;DHT22;7781;49.690;6.472;2024-02-23T05:37:24;4.30;99.90
15364;DHT22;7781;49.690;6.472;2024-02-23T05:39:54;4.30;99.90
15364;DHT22;7781;49.690;6.472;2024-02-23T05:42:23;4.30;99.90
15364;DHT22;7781;49.690;6.472;2024-02-23T05:44:51;4.30;99.90
15364;DHT22;7781;49.690;6.472;2024-02-23T05:47:21;4.30;99.90
15364;DHT22;7781;49.690;6.472;2024-02-23T05:49:50;4.40;99.90
15364;DHT22;7781;49.690;6.472;2024-02-23T05:52:19;4.30;99.90
15364;DHT22;7781;49.690;6.472;2024-02-23T05:54:48;4.40;99.90
15364;DHT22;7781;49.690;6.472;2024-02-23T05:57:19;4.40;99.90
15364;DHT22;7781;49.690;6.472;2024-02-23T05:59:47;4.30;99.90
15364;DHT22;7781;49.690;6.472;2024-02-23T06:02:16;4.40;99.90
15364;DHT22;7781;49.690;6.472;2024-02-23T06:04:46;4.40;99.90
15364;DHT22;7781;49.690;6.472;2024-02-23T06:07:14;4.40;99.90
15364;DHT22;7781;49.690;6.472;2024-02-23T06:09:43;4.40;99.90
15364;DHT22;7781;49.690;6.472;2024-02-23T06:12:12;4.50;99.90
15364;DHT22;7781;49.690;6.472;2024-02-23T06:14:40;4.50;99.90
15364;DHT22;7781;49.690;6.472;2024-02-23T06:17:12;4.50;99.90
15364;DHT22;7781;49.690;6.472;2024-02-23T06:19:41;4.50;99.90
15364;DHT22;7781;49.690;6.472;2024-02-23T06:22:10;4.60;99.90
15364;DHT22;7781;49.690;6.472;2024-02-23T06:24:39;4.60;99.90
15364;DHT22;7781;49.690;6.472;2024-02-23T06:27:08;4.50;99.90
15364;DHT22;7781;49.690;6.472;2024-02-23T06:29:36;4.60;99.90
15364;DHT22;7781;49.690;6.472;2024-02-23T06:32:06;4.60;99.90
15364;DHT22;7781;49.690;6.472;2024-02-23T06:34:34;4.60;99.90
15364;DHT22;7781;49.690;6.472;2024-02-23T06:37:03;4.50;99.90
15364;DHT22;7781;49.690;6.472;2024-02-23T06:39:34;4.60;99.90
15364;DHT22;7781;49.690;6.472;2024-02-23T06:42:02;4.50;99.90
15364;DHT22;7781;49.690;6.472;2024-02-23T06:44:32;4.50;99.90
15364;DHT22;7781;49.690;6.472;2024-02-23T06:47:00;4.50;99.90
15364;DHT22;7781;49.690;6.472;2024-02-23T06:49:29;4.40;99.90
15364;DHT22;7781;49.690;6.472;2024-02-23T06:51:58;4.40;99.90
15364;DHT22;7781;49.690;6.472;2024-02-23T06:54:26;4.40;99.90
15364;DHT22;7781;49.690;6.472;2024-02-23T06:56:58;4.40;99.90
15364;DHT22;7781;49.690;6.472;2024-02-23T06:59:26;4.50;99.90
15364;DHT22;7781;49.690;6.472;2024-02-23T07:01:54;4.50;99.90
15364;DHT22;7781;49.690;6.472;2024-02-23T07:04:23;4.50;99.90
15364;DHT22;7781;49.690;6.472;2024-02-23T07:06:52;4.50;99.90
15364;DHT22;7781;49.690;6.472;2024-02-23T07:09:22;4.50;99.90
15364;DHT22;7781;49.690;6.472;2024-02-23T07:11:50;4.50;99.90
15364;DHT22;7781;49.690;6.472;2024-02-23T07:14:22;4.50;99.90
15364;DHT22;7781;49.690;6.472;2024-02-23T07:16:50;4.50;99.90
15364;DHT22;7781;49.690;6.472;2024-02-23T07:19:19;4.60;99.90
15364;DHT22;7781;49.690;6.472;2024-02-23T07:21:48;4.60;99.90
15364;DHT22;7781;49.690;6.472;2024-02-23T07:24:16;4.70;99.90
15364;DHT22;7781;49.690;6.472;2024-02-23T07:26:44;4.60;99.90
15364;DHT22;7781;49.690;6.472;2024-02-23T07:29:13;4.60;99.90
15364;DHT22;7781;49.690;6.472;2024-02-23T07:31:46;4.70;99.90
15364;DHT22;7781;49.690;6.472;2024-02-23T07:34:14;4.70;99.90
15364;DHT22;7781;49.690;6.472;2024-02-23T07:36:43;4.80;99.90
15364;DHT22;7781;49.690;6.472;2024-02-23T07:39:11;4.80;99.90
15364;DHT22;7781;49.690;6.472;2024-02-23T07:41:40;4.80;99.90
15364;DHT22;7781;49.690;6.472;2024-02-23T07:44:08;4.90;99.90
15364;DHT22;7781;49.690;6.472;2024-02-23T07:46:38;4.90;99.90
15364;DHT22;7781;49.690;6.472;2024-02-23T07:49:09;4.90;99.90
15364;DHT22;7781;49.690;6.472;2024-02-23T07:51:38;4.90;99.90
15364;DHT22;7781;49.690;6.472;2024-02-23T07:54:07;4.90;99.90
15364;DHT22;7781;49.690;6.472;2024-02-23T07:56:37;5.00;99.90
15364;DHT22;7781;49.690;6.472;2024-02-23T07:59:05;5.00;99.90
15364;DHT22;7781;49.690;6.472;2024-02-23T08:01:35;5.00;99.90
15364;DHT22;7781;49.690;6.472;2024-02-23T08:04:03;5.00;99.90
15364;DHT22;7781;49.690;6.472;2024-02-23T08:06:33;5.00;99.90
15364;DHT22;7781;49.690;6.472;2024-02-23T08:09:02;5.10;99.90
15364;DHT22;7781;49.690;6.472;2024-02-23T08:11:31;5.10;99.90
15364;DHT22;7781;49.690;6.472;2024-02-23T08:14:02;5.10;99.90
15364;DHT22;7781;49.690;6.472;2024-02-23T08:16:31;5.20;99.90
15364;DHT22;7781;49.690;6.472;2024-02-23T08:19:00;5.20;99.90
15364;DHT22;7781;49.690;6.472;2024-02-23T08:25:13;5.30;99.90
15364;DHT22;7781;49.690;6.472;2024-02-23T08:27:42;5.30;99.90
15364;DHT22;7781;49.690;6.472;2024-02-23T08:30:10;5.40;99.90
15364;DHT22;7781;49.690;6.472;2024-02-23T08:32:39;5.50;99.90
15364;DHT22;7781;49.690;6.472;2024-02-23T08:35:08;5.50;99.90
15364;DHT22;7781;49.690;6.472;2024-02-23T08:37:36;5.60;99.90
15364;DHT22;7781;49.690;6.472;2024-02-23T08:40:06;5.60;99.90
15364;DHT22;7781;49.690;6.472;2024-02-23T08:42:37;5.70;99.90
15364;DHT22;7781;49.690;6.472;2024-02-23T08:45:06;5.70;99.90
15364;DHT22;7781;49.690;6.472;2024-02-23T08:47:34;5.70;99.90
15364;DHT22;7781;49.690;6.472;2024-02-23T08:50:04;5.70;99.90
15364;DHT22;7781;49.690;6.472;2024-02-23T08:52:32;5.70;99.90
15364;DHT22;7781;49.690;6.472;2024-02-23T08:55:01;5.70;99.90
15364;DHT22;7781;49.690;6.472;2024-02-23T08:57:30;5.60;99.90
15364;DHT22;7781;49.690;6.472;2024-02-23T09:00:00;5.70;99.90
15364;DHT22;7781;49.690;6.472;2024-02-23T09:02:28;5.70;99.90
15364;DHT22;7781;49.690;6.472;2024-02-23T09:04:58;5.70;99.90
15364;DHT22;7781;49.690;6.472;2024-02-23T09:07:27;5.70;99.90
15364;DHT22;7781;49.690;6.472;2024-02-23T09:09:56;5.70;99.90
15364;DHT22;7781;49.690;6.472;2024-02-23T09:12:25;5.70;99.90
15364;DHT22;7781;49.690;6.472;2024-02-23T09:14:53;5.80;99.90
15364;DHT22;7781;49.690;6.472;2024-02-23T09:17:23;5.90;99.90
15364;DHT22;7781;49.690;6.472;2024-02-23T09:19:53;6.10;99.90
15364;DHT22;7781;49.690;6.472;2024-02-23T09:22:21;6.10;99.90
15364;DHT22;7781;49.690;6.472;2024-02-23T09:24:50;6.10;99.90
15364;DHT22;7781;49.690;6.472;2024-02-23T09:27:20;6.10;99.90
15364;DHT22;7781;49.690;6.472;2024-02-23T09:29:49;6.10;99.90
15364;DHT22;7781;49.690;6.472;2024-02-23T09:32:19;6.30;99.90
15364;DHT22;7781;49.690;6.472;2024-02-23T09:34:48;6.10;99.90
15364;DHT22;7781;49.690;6.472;2024-02-23T09:37:17;6.10;99.90
15364;DHT22;7781;49.690;6.472;2024-02-23T09:39:45;6.00;99.90
15364;DHT22;7781;49.690;6.472;2024-02-23T09:42:14;6.00;99.90
15364;DHT22;7781;49.690;6.472;2024-02-23T09:44:45;5.90;99.90
15364;DHT22;7781;49.690;6.472;2024-02-23T09:47:17;6.00;99.90
15364;DHT22;7781;49.690;6.472;2024-02-23T09:49:49;6.10;99.90
15364;DHT22;7781;49.690;6.472;2024-02-23T09:52:20;6.10;99.90
15364;DHT22;7781;49.690;6.472;2024-02-23T09:54:49;6.10;99.90
15364;DHT22;7781;49.690;6.472;2024-02-23T09:57:18;6.00;99.90
15364;DHT22;7781;49.690;6.472;2024-02-23T09:59:48;6.00;99.90
15364;DHT22;7781;49.690;6.472;2024-02-23T10:02:17;6.10;99.90
15364;DHT22;7781;49.690;6.472;2024-02-23T10:04:50;6.10;99.90
15364;DHT22;7781;49.690;6.472;2024-02-23T10:07:19;6.10;99.90
15364;DHT22;7781;49.690;6.472;2024-02-23T10:09:48;6.10;99.90
15364;DHT22;7781;49.690;6.472;2024-02-23T10:12:16;6.20;99.90
15364;DHT22;7781;49.690;6.472;2024-02-23T10:14:45;6.20;99.90
15364;DHT22;7781;49.690;6.472;2024-02-23T10:17:15;6.30;99.90
15364;DHT22;7781;49.690;6.472;2024-02-23T10:19:45;6.30;99.90
15364;DHT22;7781;49.690;6.472;2024-02-23T10:22:15;6.30;99.90
15364;DHT22;7781;49.690;6.472;2024-02-23T10:24:44;6.40;99.90
15364;DHT22;7781;49.690;6.472;2024-02-23T10:27:40;6.50;99.90
15364;DHT22;7781;49.690;6.472;2024-02-23T10:30:09;6.50;99.90
15364;DHT22;7781;49.690;6.472;2024-02-23T10:32:39;6.50;98.80
15364;DHT22;7781;49.690;6.472;2024-02-23T10:35:11;6.50;99.90
15364;DHT22;7781;49.690;6.472;2024-02-23T10:37:43;6.50;99.90
15364;DHT22;7781;49.690;6.472;2024-02-23T10:40:13;6.60;99.90
15364;DHT22;7781;49.690;6.472;2024-02-23T10:42:44;6.60;97.50
15364;DHT22;7781;49.690;6.472;2024-02-23T10:45:18;6.70;98.60
15364;DHT22;7781;49.690;6.472;2024-02-23T10:47:49;6.80;97.80
15364;DHT22;7781;49.690;6.472;2024-02-23T10:50:20;6.90;99.90
15364;DHT22;7781;49.690;6.472;2024-02-23T10:52:50;7.00;99.90
15364;DHT22;7781;49.690;6.472;2024-02-23T10:55:20;7.00;97.10
15364;DHT22;7781;49.690;6.472;2024-02-23T10:57:51;7.10;95.30
15364;DHT22;7781;49.690;6.472;2024-02-23T11:00:22;7.20;96.30
15364;DHT22;7781;49.690;6.472;2024-02-23T11:02:53;7.30;97.90
15364;DHT22;7781;49.690;6.472;2024-02-23T11:05:23;7.10;99.90
15364;DHT22;7781;49.690;6.472;2024-02-23T11:07:55;7.00;99.90
15364;DHT22;7781;49.690;6.472;2024-02-23T11:10:24;6.80;99.90
15364;DHT22;7781;49.690;6.472;2024-02-23T11:12:58;6.40;99.90
15364;DHT22;7781;49.690;6.472;2024-02-23T11:15:29;6.40;99.90
15364;DHT22;7781;49.690;6.472;2024-02-23T11:17:58;6.50;99.90
15364;DHT22;7781;49.690;6.472;2024-02-23T11:20:35;6.50;99.90
15364;DHT22;7781;49.690;6.472;2024-02-23T11:23:14;6.60;99.90
15364;DHT22;7781;49.690;6.472;2024-02-23T11:25:43;6.50;99.90
15364;DHT22;7781;49.690;6.472;2024-02-23T11:28:42;6.60;99.90
15364;DHT22;7781;49.690;6.472;2024-02-23T11:31:13;6.70;99.90
15364;DHT22;7781;49.690;6.472;2024-02-23T11:33:52;6.70;99.90
15364;DHT22;7781;49.690;6.472;2024-02-23T11:36:23;6.70;99.90
15364;DHT22;7781;49.690;6.472;2024-02-23T11:38:54;6.70;99.90
15364;DHT22;7781;49.690;6.472;2024-02-23T11:41:26;6.70;99.90
15364;DHT22;7781;49.690;6.472;2024-02-23T11:43:57;6.80;99.90
15364;DHT22;7781;49.690;6.472;2024-02-23T11:46:27;6.70;99.90
15364;DHT22;7781;49.690;6.472;2024-02-23T11:48:58;6.60;99.90
15364;DHT22;7781;49.690;6.472;2024-02-23T11:51:27;6.40;99.90
15364;DHT22;7781;49.690;6.472;2024-02-23T11:53:59;6.20;99.90
15364;DHT22;7781;49.690;6.472;2024-02-23T11:56:29;6.20;99.90
15364;DHT22;7781;49.690;6.472;2024-02-23T11:58:59;6.30;99.90
15364;DHT22;7781;49.690;6.472;2024-02-23T12:01:29;6.40;99.90
15364;DHT22;7781;49.690;6.472;2024-02-23T12:03:59;6.50;99.90
15364;DHT22;7781;49.690;6.472;2024-02-23T12:06:29;6.60;99.90
15364;DHT22;7781;49.690;6.472;2024-02-23T12:09:01;6.70;99.90
15364;DHT22;7781;49.690;6.472;2024-02-23T12:11:31;6.70;99.90
15364;DHT22;7781;49.690;6.472;2024-02-23T12:14:01;6.80;99.90
15364;DHT22;7781;49.690;6.472;2024-02-23T12:16:35;7.00;99.90
15364;DHT22;7781;49.690;6.472;2024-02-23T12:19:04;7.10;99.90
15364;DHT22;7781;49.690;6.472;2024-02-23T12:21:34;7.20;99.90
15364;DHT22;7781;49.690;6.472;2024-02-23T12:24:06;7.20;99.90
15364;DHT22;7781;49.690;6.472;2024-02-23T12:26:35;7.30;99.90
15364;DHT22;7781;49.690;6.472;2024-02-23T12:29:06;7.50;99.90
15364;DHT22;7781;49.690;6.472;2024-02-23T12:31:34;7.40;99.90
15364;DHT22;7781;49.690;6.472;2024-02-23T12:34:03;7.40;99.90
15364;DHT22;7781;49.690;6.472;2024-02-23T12:36:36;7.40;99.90
15364;DHT22;7781;49.690;6.472;2024-02-23T12:39:06;7.50;99.90
15364;DHT22;7781;49.690;6.472;2024-02-23T12:41:36;7.60;99.90
15364;DHT22;7781;49.690;6.472;2024-02-23T12:44:05;7.40;99.90
15364;DHT22;7781;49.690;6.472;2024-02-23T12:46:33;7.30;99.90
15364;DHT22;7781;49.690;6.472;2024-02-23T12:49:07;7.20;99.90
15364;DHT22;7781;49.690;6.472;2024-02-23T12:51:35;7.10;99.90
15364;DHT22;7781;49.690;6.472;2024-02-23T12:54:06;7.10;99.90
15364;DHT22;7781;49.690;6.472;2024-02-23T12:56:34;7.20;99.90
15364;DHT22;7781;49.690;6.472;2024-02-23T12:59:03;7.20;99.90
15364;DHT22;7781;49.690;6.472;2024-02-23T13:01:32;7.60;99.90
15364;DHT22;7781;49.690;6.472;2024-02-23T13:04:07;8.20;99.90
15364;DHT22;7781;49.690;6.472;2024-02-23T13:06:37;8.50;99.90
15364;DHT22;7781;49.690;6.472;2024-02-23T13:09:08;8.70;99.90
15364;DHT22;7781;49.690;6.472;2024-02-23T13:11:38;9.00;99.90
15364;DHT22;7781;49.690;6.472;2024-02-23T13:14:07;9.30;99.90
15364;DHT22;7781;49.690;6.472;2024-02-23T13:16:37;9.60;99.90
15364;DHT22;7781;49.690;6.472;2024-02-23T13:19:06;9.70;92.90
15364;DHT22;7781;49.690;6.472;2024-02-23T13:21:36;9.30;84.40
15364;DHT22;7781;49.690;6.472;2024-02-23T13:24:19;9.00;69.10
15364;DHT22;7781;49.690;6.472;2024-02-23T13:26:48;8.70;70.30
15364;DHT22;7781;49.690;6.472;2024-02-23T13:29:18;8.40;75.20
15364;DHT22;7781;49.690;6.472;2024-02-23T13:31:48;8.40;95.90
15364;DHT22;7781;49.690;6.472;2024-02-23T13:34:16;8.20;90.60
15364;DHT22;7781;49.690;6.472;2024-02-23T13:36:45;7.90;91.80
15364;DHT22;7781;49.690;6.472;2024-02-23T13:39:16;7.60;94.70
15364;DHT22;7781;49.690;6.472;2024-02-23T13:41:44;7.80;99.90
15364;DHT22;7781;49.690;6.472;2024-02-23T13:44:13;8.20;85.30
15364;DHT22;7781;49.690;6.472;2024-02-23T13:46:43;8.60;90.70
15364;DHT22;7781;49.690;6.472;2024-02-23T13:49:11;8.90;65.20
15364;DHT22;7781;49.690;6.472;2024-02-23T13:51:41;9.40;56.50
15364;DHT22;7781;49.690;6.472;2024-02-23T13:54:11;9.40;55.40
15364;DHT22;7781;49.690;6.472;2024-02-23T13:56:41;9.30;49.70
15364;DHT22;7781;49.690;6.472;2024-02-23T13:59:11;8.80;38.70
15364;DHT22;7781;49.690;6.472;2024-02-23T14:01:39;8.80;42.40
15364;DHT22;7781;49.690;6.472;2024-02-23T14:04:08;9.20;45.00
15364;DHT22;7781;49.690;6.472;2024-02-23T14:06:37;9.50;12.40
15364;DHT22;7781;49.690;6.472;2024-02-23T14:09:06;9.50;16.30
15364;DHT22;7781;49.690;6.472;2024-02-23T14:11:35;9.40;21.10
15364;DHT22;7781;49.690;6.472;2024-02-23T14:14:05;9.30;14.90
15364;DHT22;7781;49.690;6.472;2024-02-23T14:16:34;9.30;24.30
15364;DHT22;7781;49.690;6.472;2024-02-23T14:19:03;9.40;27.20
15364;DHT22;7781;49.690;6.472;2024-02-23T14:21:32;9.50;26.80
15364;DHT22;7781;49.690;6.472;2024-02-23T14:24:02;9.50;24.30
15364;DHT22;7781;49.690;6.472;2024-02-23T14:26:31;9.70;15.80
15364;DHT22;7781;49.690;6.472;2024-02-23T14:29:00;9.70;9.60
15364;DHT22;7781;49.690;6.472;2024-02-23T14:31:30;9.80;11.70
15364;DHT22;7781;49.690;6.472;2024-02-23T14:33:59;9.90;20.50
15364;DHT22;7781;49.690;6.472;2024-02-23T14:36:28;10.00;25.10
15364;DHT22;7781;49.690;6.472;2024-02-23T14:39:01;10.00;14.40
15364;DHT22;7781;49.690;6.472;2024-02-23T14:41:31;9.50;29.90
15364;DHT22;7781;49.690;6.472;2024-02-23T14:44:00;9.40;26.50
15364;DHT22;7781;49.690;6.472;2024-02-23T14:46:32;9.30;25.90
15364;DHT22;7781;49.690;6.472;2024-02-23T14:49:01;9.30;22.50
15364;DHT22;7781;49.690;6.472;2024-02-23T14:51:29;9.20;23.30
15364;DHT22;7781;49.690;6.472;2024-02-23T14:53:58;9.10;29.30
15364;DHT22;7781;49.690;6.472;2024-02-23T14:56:27;8.80;32.80
15364;DHT22;7781;49.690;6.472;2024-02-23T14:58:55;8.60;28.50
15364;DHT22;7781;49.690;6.472;2024-02-23T15:01:24;8.40;42.20
15364;DHT22;7781;49.690;6.472;2024-02-23T15:03:56;8.40;45.70
15364;DHT22;7781;49.690;6.472;2024-02-23T15:06:24;8.40;43.10
15364;DHT22;7781;49.690;6.472;2024-02-23T15:08:55;8.30;45.00
15364;DHT22;7781;49.690;6.472;2024-02-23T15:11:23;8.30;45.20
15364;DHT22;7781;49.690;6.472;2024-02-23T15:13:52;8.30;50.50
15364;DHT22;7781;49.690;6.472;2024-02-23T15:16:25;8.30;47.80
15364;DHT22;7781;49.690;6.472;2024-02-23T15:18:53;8.30;47.60
15364;DHT22;7781;49.690;6.472;2024-02-23T15:21:23;8.30;53.10
15364;DHT22;7781;49.690;6.472;2024-02-23T15:23:53;8.40;60.40
15364;DHT22;7781;49.690;6.472;2024-02-23T15:26:24;8.30;54.90
15364;DHT22;7781;49.690;6.472;2024-02-23T15:28:57;8.30;57.30
15364;DHT22;7781;49.690;6.472;2024-02-23T15:31:26;8.30;58.30
15364;DHT22;7781;49.690;6.472;2024-02-23T15:33:55;8.30;55.80
15364;DHT22;7781;49.690;6.472;2024-02-23T15:36:27;8.40;64.70
15364;DHT22;7781;49.690;6.472;2024-02-23T15:38:57;8.30;67.60
15364;DHT22;7781;49.690;6.472;2024-02-23T15:41:32;8.30;65.40
15364;DHT22;7781;49.690;6.472;2024-02-23T15:44:01;8.30;65.00
15364;DHT22;7781;49.690;6.472;2024-02-23T15:46:31;8.30;67.60
15364;DHT22;7781;49.690;6.472;2024-02-23T15:49:00;8.40;68.00
15364;DHT22;7781;49.690;6.472;2024-02-23T15:51:48;8.50;90.40
15364;DHT22;7781;49.690;6.472;2024-02-23T15:54:26;8.40;63.10
15364;DHT22;7781;49.690;6.472;2024-02-23T15:56:57;8.50;77.00
15364;DHT22;7781;49.690;6.472;2024-02-23T15:59:25;8.20;99.90
15364;DHT22;7781;49.690;6.472;2024-02-23T16:01:55;8.00;99.90
15364;DHT22;7781;49.690;6.472;2024-02-23T16:04:24;7.80;99.90
15364;DHT22;7781;49.690;6.472;2024-02-23T16:06:55;7.90;99.90
15364;DHT22;7781;49.690;6.472;2024-02-23T16:09:24;7.80;99.90
15364;DHT22;7781;49.690;6.472;2024-02-23T16:11:53;7.80;99.90
15364;DHT22;7781;49.690;6.472;2024-02-23T16:14:21;7.70;99.90
15364;DHT22;7781;49.690;6.472;2024-02-23T16:16:51;7.50;99.90
15364;DHT22;7781;49.690;6.472;2024-02-23T16:19:21;7.50;99.90
15364;DHT22;7781;49.690;6.472;2024-02-23T16:21:50;7.20;99.90